createdAt,value
2023-06-06T00:00:10.822Z,13.48
2023-06-06T00:03:01.501Z,13.47
2023-06-06T00:05:30.906Z,13.45
2023-06-06T00:07:59.461Z,13.43
2023-06-06T00:10:27.412Z,13.42
2023-06-06T00:12:56.465Z,13.40
2023-06-06T00:15:25.986Z,13.40
2023-06-06T00:17:56.865Z,13.40
2023-06-06T00:20:26.127Z,13.41
2023-06-06T00:22:54.964Z,13.40
2023-06-06T00:25:23.189Z,13.40
2023-06-06T00:27:51.119Z,13.41
2023-06-06T00:30:19.304Z,13.39
2023-06-06T00:32:47.270Z,13.37
2023-06-06T00:35:15.457Z,13.37
2023-06-06T00:37:43.995Z,13.37
2023-06-06T00:40:13.578Z,13.37
2023-06-06T00:42:41.612Z,13.36
2023-06-06T00:45:09.932Z,13.36
2023-06-06T00:47:40.033Z,13.36
2023-06-06T00:50:09.707Z,13.37
2023-06-06T00:52:38.694Z,13.37
2023-06-06T00:55:07.234Z,13.38
2023-06-06T00:57:38.405Z,13.37
2023-06-06T01:00:09.652Z,13.35
2023-06-06T01:02:40.834Z,13.32
2023-06-06T01:05:09.113Z,13.29
2023-06-06T01:07:37.805Z,13.26
2023-06-06T01:10:09.679Z,13.25
2023-06-06T01:13:04.637Z,13.23
2023-06-06T01:16:01.268Z,13.22
2023-06-06T01:18:33.401Z,13.22
2023-06-06T01:21:03.094Z,13.22
2023-06-06T01:23:31.892Z,13.23
2023-06-06T01:26:07.169Z,13.25
2023-06-06T01:28:35.238Z,13.27
2023-06-06T01:31:04.377Z,13.28
2023-06-06T01:33:52.002Z,13.30
2023-06-06T01:36:38.872Z,13.31
2023-06-06T01:39:16.765Z,13.27
2023-06-06T01:41:47.359Z,13.21
2023-06-06T01:44:17.444Z,13.16
2023-06-06T01:46:46.084Z,13.11
2023-06-06T01:49:17.208Z,13.08
2023-06-06T01:51:45.452Z,13.03
2023-06-06T01:54:13.576Z,12.98
2023-06-06T01:56:41.513Z,12.92
2023-06-06T01:59:11.174Z,12.89
2023-06-06T02:01:39.247Z,12.87
2023-06-06T02:04:07.715Z,12.84
2023-06-06T02:06:36.807Z,12.81
2023-06-06T02:09:04.786Z,12.81
2023-06-06T02:11:37.140Z,12.80
2023-06-06T02:14:05.136Z,12.81
2023-06-06T02:16:33.131Z,12.81
2023-06-06T02:19:01.246Z,12.82
2023-06-06T02:21:29.777Z,12.79
2023-06-06T02:23:57.697Z,12.75
2023-06-06T02:26:25.747Z,12.73
2023-06-06T02:28:53.681Z,12.70
2023-06-06T02:31:23.075Z,12.69
2023-06-06T02:33:51.409Z,12.70
2023-06-06T02:36:20.125Z,12.72
2023-06-06T02:38:48.698Z,12.73
2023-06-06T02:41:17.120Z,12.73
2023-06-06T02:43:47.012Z,12.74
2023-06-06T02:46:15.062Z,12.79
2023-06-06T02:48:50.284Z,12.82
2023-06-06T02:51:21.401Z,12.85
2023-06-06T02:53:51.240Z,12.88
2023-06-06T02:56:20.024Z,12.89
2023-06-06T02:58:48.684Z,12.90
2023-06-06T03:01:16.788Z,12.91
2023-06-06T03:03:45.187Z,12.91
2023-06-06T03:06:14.114Z,12.90
2023-06-06T03:08:45.190Z,12.90
2023-06-06T03:11:13.421Z,12.92
2023-06-06T03:13:41.660Z,12.96
2023-06-06T03:16:09.530Z,13.01
2023-06-06T03:18:40.611Z,13.06
2023-06-06T03:21:12.029Z,13.12
2023-06-06T03:23:44.157Z,13.17
2023-06-06T03:26:13.321Z,13.23
2023-06-06T03:28:42.299Z,13.28
2023-06-06T03:31:13.075Z,13.33
2023-06-06T03:33:49.627Z,13.36
2023-06-06T03:36:27.961Z,13.39
2023-06-06T03:38:56.540Z,13.46
2023-06-06T03:41:24.842Z,13.52
2023-06-06T03:43:52.866Z,13.59
2023-06-06T03:46:21.772Z,13.69
2023-06-06T03:48:51.104Z,13.77
2023-06-06T03:51:19.189Z,13.88
2023-06-06T03:53:47.135Z,13.97
2023-06-06T03:56:15.252Z,14.07
2023-06-06T03:58:43.253Z,14.16
2023-06-06T04:01:11.627Z,14.25
2023-06-06T04:03:40.249Z,14.33
2023-06-06T04:06:09.770Z,14.42
2023-06-06T04:08:40.772Z,14.50
2023-06-06T04:11:08.953Z,14.57
2023-06-06T04:13:37.326Z,14.69
2023-06-06T04:16:05.853Z,14.78
2023-06-06T04:18:35.078Z,14.89
2023-06-06T04:21:03.195Z,15.03
2023-06-06T04:23:31.273Z,15.15
2023-06-06T04:26:03.013Z,15.28
2023-06-06T04:28:33.382Z,15.40
2023-06-06T04:31:02.152Z,15.49
2023-06-06T04:33:34.078Z,15.60
2023-06-06T04:36:02.241Z,15.72
2023-06-06T04:38:31.571Z,15.83
2023-06-06T04:41:21.239Z,15.93
2023-06-06T04:43:53.604Z,16.06
2023-06-06T04:46:25.935Z,16.18
2023-06-06T04:48:55.587Z,16.30
2023-06-06T04:51:32.433Z,16.41
2023-06-06T04:54:04.901Z,16.52
2023-06-06T04:56:34.253Z,16.60
2023-06-06T04:59:08.465Z,16.69
2023-06-06T05:01:39.380Z,16.76
2023-06-06T05:04:08.778Z,16.84
2023-06-06T05:06:38.018Z,16.92
2023-06-06T05:09:06.180Z,16.97
2023-06-06T05:11:36.571Z,17.00
2023-06-06T05:14:05.910Z,17.08
2023-06-06T05:16:34.074Z,17.16
2023-06-06T05:19:02.024Z,17.22
2023-06-06T05:21:29.891Z,17.28
2023-06-06T05:24:00.874Z,17.34
2023-06-06T05:26:31.238Z,17.44
2023-06-06T05:29:02.192Z,17.56
2023-06-06T05:31:30.229Z,17.68
2023-06-06T05:33:58.171Z,17.78
2023-06-06T05:36:26.120Z,17.88
2023-06-06T05:38:55.750Z,18.01
2023-06-06T05:41:25.034Z,18.10
2023-06-06T05:43:52.975Z,18.19
2023-06-06T05:46:21.034Z,18.30
2023-06-06T05:48:50.027Z,18.39
2023-06-06T05:51:19.401Z,18.49
2023-06-06T05:53:47.406Z,18.62
2023-06-06T05:56:19.582Z,18.72
2023-06-06T05:58:50.590Z,18.82
2023-06-06T06:01:18.542Z,18.91
2023-06-06T06:03:51.009Z,18.96
2023-06-06T06:06:21.489Z,19.04
2023-06-06T06:08:51.948Z,19.14
2023-06-06T06:11:21.663Z,19.22
2023-06-06T06:13:49.704Z,19.25
2023-06-06T06:16:17.710Z,19.34
2023-06-06T06:18:46.747Z,19.35
2023-06-06T06:21:15.978Z,19.46
2023-06-06T06:23:46.030Z,19.56
2023-06-06T06:26:14.266Z,19.63
2023-06-06T06:28:42.261Z,19.66
2023-06-06T06:31:10.451Z,19.70
2023-06-06T06:33:39.783Z,19.78
2023-06-06T06:36:07.834Z,19.89
2023-06-06T06:38:37.734Z,20.00
2023-06-06T06:41:05.751Z,20.12
2023-06-06T06:43:34.054Z,20.24
2023-06-06T06:46:04.839Z,20.33
2023-06-06T06:48:32.850Z,20.43
2023-06-06T06:51:00.857Z,20.50
2023-06-06T06:53:34.198Z,20.51
2023-06-06T06:56:03.289Z,20.54
2023-06-06T06:58:35.948Z,20.60
2023-06-06T07:01:05.233Z,20.65
2023-06-06T07:03:36.337Z,20.71
2023-06-06T07:06:08.339Z,20.73
2023-06-06T07:08:36.394Z,20.80
2023-06-06T07:11:04.569Z,20.83
2023-06-06T07:13:33.678Z,20.90
2023-06-06T07:16:03.399Z,20.87
2023-06-06T07:18:32.594Z,20.94
2023-06-06T07:21:00.681Z,21.00
2023-06-06T07:23:28.629Z,21.10
2023-06-06T07:25:57.907Z,21.21
2023-06-06T07:28:27.912Z,21.29
2023-06-06T07:30:55.969Z,21.36
2023-06-06T07:33:24.059Z,21.46
2023-06-06T07:35:52.028Z,21.55
2023-06-06T07:38:21.232Z,21.61
2023-06-06T07:40:49.319Z,21.68
2023-06-06T07:43:17.261Z,21.76
2023-06-06T07:45:46.564Z,21.83
2023-06-06T07:48:14.820Z,21.94
2023-06-06T07:50:42.977Z,22.09
2023-06-06T07:53:13.148Z,22.34
2023-06-06T07:55:43.093Z,22.51
2023-06-06T07:58:13.790Z,22.65
2023-06-06T08:00:47.143Z,22.70
2023-06-06T08:03:17.200Z,22.75
2023-06-06T08:05:45.412Z,22.90
2023-06-06T08:08:13.388Z,23.06
2023-06-06T08:10:41.328Z,23.14
2023-06-06T08:13:10.602Z,23.10
2023-06-06T08:15:38.473Z,22.94
2023-06-06T08:18:06.678Z,23.04
2023-06-06T08:20:35.909Z,23.02
2023-06-06T08:23:04.884Z,23.02
2023-06-06T08:25:40.845Z,23.15
2023-06-06T08:28:08.861Z,23.25
2023-06-06T08:30:36.737Z,23.37
2023-06-06T08:33:04.689Z,23.48
2023-06-06T08:35:32.672Z,23.48
2023-06-06T08:38:02.694Z,23.53
2023-06-06T08:40:32.659Z,23.51
2023-06-06T08:43:02.464Z,23.60
2023-06-06T08:45:30.488Z,23.65
2023-06-06T08:48:04.235Z,23.72
2023-06-06T08:50:34.387Z,23.79
2023-06-06T08:53:05.908Z,23.90
2023-06-06T08:55:36.315Z,24.10
2023-06-06T08:58:06.245Z,24.22
2023-06-06T09:00:34.462Z,24.22
2023-06-06T09:03:08.210Z,24.25
2023-06-06T09:05:39.348Z,24.30
2023-06-06T09:08:11.820Z,24.39
2023-06-06T09:10:39.798Z,24.44
2023-06-06T09:13:09.337Z,24.50
2023-06-06T09:15:37.211Z,24.55
2023-06-06T09:18:05.189Z,24.53
2023-06-06T09:20:36.141Z,24.53
2023-06-06T09:23:06.223Z,24.59
2023-06-06T09:25:34.245Z,24.67
2023-06-06T09:28:04.974Z,24.70
2023-06-06T09:30:37.266Z,24.70
2023-06-06T09:33:06.793Z,24.83
2023-06-06T09:35:37.768Z,24.96
2023-06-06T09:38:18.080Z,25.03
2023-06-06T09:40:53.182Z,25.12
2023-06-06T09:43:26.574Z,25.17
2023-06-06T09:46:00.954Z,25.23
2023-06-06T09:48:30.118Z,25.31
2023-06-06T09:51:00.515Z,25.40
2023-06-06T09:53:33.307Z,25.44
2023-06-06T09:56:05.833Z,25.60
2023-06-06T09:58:36.167Z,25.64
2023-06-06T10:01:08.658Z,25.65
2023-06-06T10:03:39.099Z,25.73
2023-06-06T10:06:09.587Z,25.83
2023-06-06T10:08:40.193Z,25.96
2023-06-06T10:11:10.040Z,26.07
2023-06-06T10:13:39.365Z,26.14
2023-06-06T10:16:11.588Z,26.28
2023-06-06T10:18:48.268Z,26.38
2023-06-06T10:21:17.769Z,26.50
2023-06-06T10:23:47.277Z,26.71
2023-06-06T10:26:28.825Z,26.93
2023-06-06T10:29:01.946Z,27.09
2023-06-06T10:31:36.437Z,27.21
2023-06-06T10:34:09.340Z,27.26
2023-06-06T10:36:45.982Z,27.33
2023-06-06T10:39:24.343Z,27.37
2023-06-06T10:41:54.545Z,27.49
2023-06-06T10:44:39.847Z,27.49
2023-06-06T10:47:32.025Z,27.42
2023-06-06T10:50:19.481Z,27.46
2023-06-06T10:53:00.011Z,27.56
2023-06-06T10:55:29.272Z,27.70
2023-06-06T10:58:26.590Z,27.79
2023-06-06T11:00:59.987Z,27.81
2023-06-06T11:03:43.209Z,27.84
2023-06-06T11:06:14.779Z,27.85
2023-06-06T11:08:46.042Z,27.78
2023-06-06T11:11:16.680Z,27.89
2023-06-06T11:13:58.933Z,28.03
2023-06-06T11:16:50.257Z,28.08
2023-06-06T11:19:23.858Z,28.28
2023-06-06T11:21:59.886Z,28.27
2023-06-06T11:24:37.048Z,28.43
2023-06-06T11:27:07.508Z,28.56
2023-06-06T11:29:37.691Z,28.49
2023-06-06T11:32:13.464Z,28.51
2023-06-06T11:34:42.797Z,28.60
2023-06-06T11:37:12.045Z,28.68
2023-06-06T11:39:40.076Z,28.89
2023-06-06T11:42:19.260Z,28.93
2023-06-06T11:44:47.375Z,28.75
2023-06-06T11:47:15.641Z,28.90
2023-06-06T11:49:46.787Z,29.01
2023-06-06T11:52:16.943Z,29.03
2023-06-06T11:55:06.519Z,29.06
2023-06-06T11:57:39.710Z,29.03
2023-06-06T12:00:19.575Z,28.98
2023-06-06T12:02:53.860Z,28.96
2023-06-06T12:05:26.671Z,28.94
2023-06-06T12:08:01.579Z,28.88
2023-06-06T12:10:33.063Z,28.85
2023-06-06T12:13:01.213Z,28.76
2023-06-06T12:15:49.530Z,28.66
2023-06-06T12:18:18.228Z,28.64
2023-06-06T12:20:48.613Z,28.72
2023-06-06T12:23:33.803Z,28.65
2023-06-06T12:26:04.380Z,28.30
2023-06-06T12:28:34.055Z,28.33
2023-06-06T12:31:19.145Z,28.34
2023-06-06T12:33:48.725Z,28.28
2023-06-06T12:36:23.003Z,28.23
2023-06-06T12:39:14.571Z,28.20
2023-06-06T12:41:44.409Z,28.26
2023-06-06T12:44:17.491Z,28.32
2023-06-06T12:46:47.140Z,28.46
2023-06-06T12:49:15.175Z,28.55
2023-06-06T12:51:44.997Z,28.40
2023-06-06T12:54:13.063Z,28.42
2023-06-06T12:56:41.168Z,28.40
2023-06-06T12:59:10.487Z,28.45
2023-06-06T13:01:42.267Z,28.53
2023-06-06T13:04:11.801Z,28.53
2023-06-06T13:06:42.376Z,28.39
2023-06-06T13:09:10.475Z,28.49
2023-06-06T13:11:38.691Z,28.39
2023-06-06T13:14:08.659Z,28.18
2023-06-06T13:16:38.656Z,28.12
2023-06-06T13:19:08.222Z,28.13
2023-06-06T13:21:37.461Z,28.15
2023-06-06T13:24:10.888Z,28.12
2023-06-06T13:26:41.658Z,28.18
2023-06-06T13:29:11.856Z,28.20
2023-06-06T13:31:46.506Z,28.33
2023-06-06T13:34:16.817Z,28.52
2023-06-06T13:36:44.854Z,28.63
2023-06-06T13:39:12.733Z,28.56
2023-06-06T13:41:44.385Z,28.36
2023-06-06T13:44:23.320Z,28.38
2023-06-06T13:49:25.925Z,28.41
2023-06-06T13:51:53.890Z,28.68
2023-06-06T13:54:25.096Z,28.68
2023-06-06T13:56:56.474Z,28.52
2023-06-06T13:59:24.449Z,28.53
2023-06-06T14:01:54.006Z,28.62
2023-06-06T14:04:23.599Z,28.60
2023-06-06T14:06:54.941Z,28.69
2023-06-06T14:09:24.662Z,28.67
2023-06-06T14:11:52.576Z,28.76
2023-06-06T14:14:20.630Z,29.00
2023-06-06T14:16:52.155Z,29.05
2023-06-06T14:19:38.019Z,29.02
2023-06-06T14:22:40.091Z,29.11
2023-06-06T14:25:09.698Z,28.90
2023-06-06T14:27:40.627Z,28.90
2023-06-06T14:30:12.085Z,29.69
2023-06-06T14:32:41.816Z,31.65
2023-06-06T14:35:12.365Z,33.63
2023-06-06T14:37:40.411Z,35.01
2023-06-06T14:40:12.050Z,35.62
2023-06-06T14:42:41.818Z,35.56
2023-06-06T14:45:11.276Z,34.41
2023-06-06T14:47:39.480Z,34.26
2023-06-06T14:50:07.908Z,33.88
2023-06-06T14:52:37.405Z,33.71
2023-06-06T14:55:05.750Z,33.96
2023-06-06T14:57:33.687Z,34.24
2023-06-06T15:00:04.637Z,33.80
2023-06-06T15:02:33.658Z,33.37
2023-06-06T15:05:04.132Z,33.42
2023-06-06T15:07:33.350Z,34.64
2023-06-06T15:10:01.590Z,33.99
2023-06-06T15:12:29.569Z,34.12
2023-06-06T15:14:57.686Z,34.47
2023-06-06T15:17:27.965Z,35.32
2023-06-06T15:19:57.385Z,36.64
2023-06-06T15:22:25.561Z,37.43
2023-06-06T15:24:53.829Z,36.87
2023-06-06T15:27:24.338Z,35.54
2023-06-06T15:29:56.705Z,34.24
2023-06-06T15:32:28.658Z,33.55
2023-06-06T15:34:57.939Z,34.16
2023-06-06T15:37:27.165Z,35.10
2023-06-06T15:39:57.442Z,36.18
2023-06-06T15:42:27.384Z,38.15
2023-06-06T15:44:59.083Z,39.23
2023-06-06T15:47:28.844Z,39.90
2023-06-06T15:49:56.766Z,40.80
2023-06-06T15:52:27.929Z,41.72
2023-06-06T15:54:59.879Z,42.35
2023-06-06T15:57:30.751Z,40.37
2023-06-06T15:59:58.746Z,38.14
2023-06-06T16:02:27.962Z,37.11
2023-06-06T16:04:56.021Z,36.52
2023-06-06T16:07:25.190Z,35.98
2023-06-06T16:09:53.265Z,35.44
2023-06-06T16:12:21.299Z,34.68
2023-06-06T16:14:49.181Z,34.24
2023-06-06T16:17:18.433Z,33.75
2023-06-06T16:19:47.663Z,33.33
2023-06-06T16:22:16.909Z,32.80
2023-06-06T16:24:44.892Z,32.38
2023-06-06T16:27:13.893Z,31.95
2023-06-06T16:29:41.820Z,31.60
2023-06-06T16:32:10.136Z,31.78
2023-06-06T16:34:40.596Z,31.66
2023-06-06T16:37:08.932Z,31.51
2023-06-06T16:39:39.139Z,31.80
2023-06-06T16:42:08.411Z,32.24
2023-06-06T16:44:38.056Z,32.62
2023-06-06T16:47:06.830Z,33.24
2023-06-06T16:49:34.935Z,32.93
2023-06-06T16:52:03.106Z,32.49
2023-06-06T16:54:36.159Z,31.74
2023-06-06T16:57:10.677Z,31.07
2023-06-06T16:59:38.825Z,30.51
2023-06-06T17:02:08.241Z,30.33
2023-06-06T17:04:37.440Z,30.13
2023-06-06T17:07:05.498Z,30.80
2023-06-06T17:09:33.368Z,32.77
2023-06-06T17:12:02.411Z,34.51
2023-06-06T17:14:31.794Z,35.97
2023-06-06T17:16:59.729Z,36.95
2023-06-06T17:19:27.728Z,37.53
2023-06-06T17:21:55.747Z,37.80
2023-06-06T17:24:23.790Z,38.26
2023-06-06T17:26:53.771Z,38.29
2023-06-06T17:29:22.725Z,37.80
2023-06-06T17:31:51.965Z,36.79
2023-06-06T17:34:22.451Z,36.60
2023-06-06T17:36:50.649Z,37.21
2023-06-06T17:39:18.927Z,37.75
2023-06-06T17:41:46.982Z,37.76
2023-06-06T17:44:15.277Z,36.93
2023-06-06T17:46:45.011Z,36.37
2023-06-06T17:49:13.164Z,35.97
2023-06-06T17:51:44.626Z,35.50
2023-06-06T17:54:14.883Z,34.89
2023-06-06T17:56:44.730Z,34.33
2023-06-06T17:59:14.582Z,33.95
2023-06-06T18:01:43.730Z,33.90
2023-06-06T18:04:14.929Z,33.58
2023-06-06T18:06:45.392Z,33.23
2023-06-06T18:09:15.528Z,33.26
2023-06-06T18:11:45.941Z,33.22
2023-06-06T18:14:14.353Z,33.10
2023-06-06T18:16:43.476Z,32.47
2023-06-06T18:19:12.616Z,31.51
2023-06-06T18:21:42.115Z,30.85
2023-06-06T18:24:11.685Z,30.30
2023-06-06T18:26:43.683Z,30.04
2023-06-06T18:29:13.072Z,29.62
2023-06-06T18:31:41.083Z,29.09
2023-06-06T18:34:15.963Z,28.34
2023-06-06T18:36:48.598Z,27.64
2023-06-06T18:39:17.691Z,27.03
2023-06-06T18:41:47.787Z,26.58
2023-06-06T18:44:16.184Z,26.19
2023-06-06T18:46:48.578Z,25.80
2023-06-06T18:49:18.993Z,25.41
2023-06-06T18:51:50.437Z,25.01
2023-06-06T18:54:23.288Z,24.67
2023-06-06T18:56:55.658Z,24.37
2023-06-06T18:59:23.520Z,24.06
2023-06-06T19:01:54.342Z,23.73
2023-06-06T19:04:22.410Z,23.44
2023-06-06T19:06:51.021Z,23.20
2023-06-06T19:09:20.231Z,22.97
2023-06-06T19:11:50.796Z,22.74
2023-06-06T19:14:21.341Z,22.55
2023-06-06T19:16:51.778Z,22.37
2023-06-06T19:19:23.485Z,22.21
2023-06-06T19:21:53.838Z,22.06
2023-06-06T19:24:22.990Z,21.93
2023-06-06T19:26:53.624Z,21.79
2023-06-06T19:29:22.853Z,21.64
2023-06-06T19:31:52.632Z,21.54
2023-06-06T19:34:21.130Z,21.44
2023-06-06T19:36:50.107Z,21.35
2023-06-06T19:39:21.865Z,21.28
2023-06-06T19:41:51.586Z,21.17
2023-06-06T19:44:22.427Z,21.08
2023-06-06T19:46:52.495Z,20.97
2023-06-06T19:49:23.374Z,20.87
2023-06-06T19:51:54.381Z,20.79
2023-06-06T19:54:24.925Z,20.70
2023-06-06T19:56:56.962Z,20.60
2023-06-06T19:59:26.768Z,20.47
2023-06-06T20:01:58.247Z,20.36
2023-06-06T20:04:29.882Z,20.25
2023-06-06T20:06:58.848Z,20.10
2023-06-06T20:09:27.973Z,19.97
2023-06-06T20:11:58.445Z,19.83
2023-06-06T20:14:27.684Z,19.70
2023-06-06T20:17:01.049Z,19.55
2023-06-06T20:19:30.657Z,19.44
2023-06-06T20:22:01.582Z,19.36
2023-06-06T20:24:32.730Z,19.28
2023-06-06T20:27:03.397Z,19.21
2023-06-06T20:29:33.022Z,19.15
2023-06-06T20:32:01.259Z,19.12
2023-06-06T20:34:30.250Z,19.07
2023-06-06T20:37:01.192Z,19.03
2023-06-06T20:39:37.482Z,18.97
2023-06-06T20:42:08.074Z,18.91
2023-06-06T20:44:37.303Z,18.86
2023-06-06T20:47:07.222Z,18.80
2023-06-06T20:49:37.825Z,18.75
2023-06-06T20:52:08.134Z,18.70
2023-06-06T20:54:37.573Z,18.66
2023-06-06T20:57:07.003Z,18.61
2023-06-06T20:59:34.960Z,18.58
2023-06-06T21:02:04.050Z,18.54
2023-06-06T21:04:31.930Z,18.52
2023-06-06T21:07:00.883Z,18.49
2023-06-06T21:09:31.000Z,18.45
2023-06-06T21:11:58.857Z,18.43
2023-06-06T21:14:31.355Z,18.38
2023-06-06T21:17:02.886Z,18.34
2023-06-06T21:19:33.425Z,18.31
2023-06-06T21:22:02.445Z,18.30
2023-06-06T21:24:33.164Z,18.29
2023-06-06T21:27:02.151Z,18.27
2023-06-06T21:29:30.038Z,18.24
2023-06-06T21:31:59.228Z,18.21
2023-06-06T21:34:28.209Z,18.20
2023-06-06T21:36:56.146Z,18.16
2023-06-06T21:39:24.082Z,18.12
2023-06-06T21:41:53.088Z,18.09
2023-06-06T21:44:21.105Z,18.06
2023-06-06T21:46:49.248Z,18.03
2023-06-06T21:49:18.606Z,18.03
2023-06-06T21:51:46.653Z,18.02
2023-06-06T21:54:14.844Z,18.03
2023-06-06T21:56:44.093Z,18.02
2023-06-06T21:59:13.807Z,18.01
2023-06-06T22:01:46.661Z,17.98
2023-06-06T22:04:14.962Z,18.01
2023-06-06T22:06:46.147Z,18.03
2023-06-06T22:09:14.213Z,18.05
2023-06-06T22:11:43.221Z,18.06
2023-06-06T22:14:11.116Z,18.05
2023-06-06T22:16:41.322Z,18.03
2023-06-06T22:19:13.698Z,18.01
2023-06-06T22:21:41.613Z,17.99
2023-06-06T22:24:09.606Z,17.97
2023-06-06T22:26:41.666Z,17.97
2023-06-06T22:29:12.848Z,17.98
2023-06-06T22:31:40.831Z,17.96
2023-06-06T22:34:10.921Z,17.92
2023-06-06T22:36:39.914Z,17.91
2023-06-06T22:39:11.670Z,17.91
2023-06-06T22:41:40.980Z,17.87
2023-06-06T22:44:10.158Z,17.83
2023-06-06T22:46:39.266Z,17.78
2023-06-06T22:49:09.834Z,17.73
2023-06-06T22:51:39.170Z,17.67
2023-06-06T22:54:08.200Z,17.60
2023-06-06T22:56:37.585Z,17.53
2023-06-06T22:59:06.560Z,17.48
2023-06-06T23:01:34.701Z,17.42
2023-06-06T23:04:03.836Z,17.36
2023-06-06T23:06:32.970Z,17.30
2023-06-06T23:09:02.017Z,17.25
2023-06-06T23:11:31.049Z,17.18
2023-06-06T23:14:00.064Z,17.15
2023-06-06T23:16:29.685Z,17.13
2023-06-06T23:18:59.880Z,17.08
2023-06-06T23:21:29.925Z,17.04
2023-06-06T23:23:59.410Z,16.99
2023-06-06T23:26:28.420Z,16.93
2023-06-06T23:28:57.394Z,16.89
2023-06-06T23:31:25.429Z,16.87
2023-06-06T23:33:56.839Z,16.86
2023-06-06T23:36:25.983Z,16.82
2023-06-06T23:38:55.101Z,16.80
2023-06-06T23:41:24.318Z,16.77
2023-06-06T23:43:52.220Z,16.75
2023-06-06T23:46:20.832Z,16.70
2023-06-06T23:48:49.753Z,16.67
2023-06-06T23:51:18.745Z,16.64
2023-06-06T23:53:46.718Z,16.60
2023-06-06T23:56:14.936Z,16.55
2023-06-06T23:58:43.148Z,16.52
